createdAt,value
2023-04-08T00:00:27.346Z,28.76
2023-04-08T00:02:54.080Z,28.78
2023-04-08T00:05:20.870Z,28.77
2023-04-08T00:07:47.478Z,28.78
2023-04-08T00:10:14.125Z,28.77
2023-04-08T00:12:40.963Z,28.75
2023-04-08T00:15:08.389Z,28.77
2023-04-08T00:17:34.999Z,28.79
2023-04-08T00:20:02.274Z,28.80
2023-04-08T00:22:28.965Z,28.78
2023-04-08T00:24:55.787Z,28.77
2023-04-08T00:27:22.556Z,28.83
2023-04-08T00:29:49.172Z,28.80
2023-04-08T00:32:16.050Z,28.78
2023-04-08T00:34:43.281Z,28.83
2023-04-08T00:37:10.412Z,28.82
2023-04-08T00:39:37.725Z,28.82
2023-04-08T00:42:04.320Z,28.83
2023-04-08T00:44:31.322Z,28.84
2023-04-08T00:46:57.970Z,28.85
2023-04-08T00:49:24.585Z,28.86
2023-04-08T00:51:51.589Z,28.84
2023-04-08T00:54:18.335Z,28.86
2023-04-08T00:56:45.080Z,28.89
2023-04-08T00:59:11.718Z,28.89
2023-04-08T01:01:45.923Z,28.92
2023-04-08T01:04:21.798Z,28.93
2023-04-08T01:06:56.356Z,28.89
2023-04-08T01:09:24.242Z,28.92
2023-04-08T01:11:51.153Z,28.92
2023-04-08T01:14:23.933Z,28.92
2023-04-08T01:16:50.576Z,28.93
2023-04-08T01:19:33.311Z,28.94
2023-04-08T01:22:33.482Z,28.94
2023-04-08T01:25:05.432Z,28.99
2023-04-08T01:27:32.271Z,28.99
2023-04-08T01:29:59.470Z,29.00
2023-04-08T01:32:27.225Z,29.00
2023-04-08T01:34:54.663Z,29.00
2023-04-08T01:37:21.363Z,29.01
2023-04-08T01:39:48.762Z,29.03
2023-04-08T01:42:15.525Z,29.08
2023-04-08T01:44:42.350Z,29.04
2023-04-08T01:47:10.684Z,29.06
2023-04-08T01:49:37.384Z,29.04
2023-04-08T01:52:05.050Z,29.03
2023-04-08T01:54:31.627Z,29.04
2023-04-08T01:56:58.233Z,29.02
2023-04-08T01:59:24.870Z,29.04
2023-04-08T02:01:51.576Z,29.06
2023-04-08T02:04:18.311Z,29.04
2023-04-08T02:06:45.077Z,29.03
2023-04-08T02:09:11.657Z,29.02
2023-04-08T02:11:38.325Z,29.06
2023-04-08T02:14:05.033Z,29.06
2023-04-08T02:16:37.478Z,29.07
2023-04-08T02:19:10.591Z,29.09
2023-04-08T02:21:42.778Z,29.08
2023-04-08T02:24:09.384Z,29.10
2023-04-08T02:26:36.623Z,29.10
2023-04-08T02:29:03.950Z,29.12
2023-04-08T02:31:30.760Z,29.15
2023-04-08T02:33:57.845Z,29.16
2023-04-08T02:36:24.464Z,29.12
2023-04-08T02:38:51.355Z,29.12
2023-04-08T02:41:18.162Z,29.11
2023-04-08T02:43:44.971Z,29.15
2023-04-08T02:46:13.795Z,29.11
2023-04-08T02:48:40.656Z,29.11
2023-04-08T02:51:07.223Z,29.14
2023-04-08T02:53:33.845Z,29.12
2023-04-08T02:56:00.534Z,29.11
2023-04-08T02:58:27.137Z,29.11
2023-04-08T03:00:53.941Z,29.12
2023-04-08T03:03:27.385Z,29.16
2023-04-08T03:05:54.387Z,29.20
2023-04-08T03:08:21.171Z,29.27
2023-04-08T03:10:48.103Z,29.21
2023-04-08T03:13:15.414Z,29.19
2023-04-08T03:15:42.197Z,29.29
2023-04-08T03:18:08.829Z,29.29
2023-04-08T03:20:35.616Z,29.27
2023-04-08T03:23:02.436Z,29.28
2023-04-08T03:25:29.292Z,29.37
2023-04-08T03:27:56.303Z,29.65
2023-04-08T03:30:23.186Z,29.62
2023-04-08T03:32:52.456Z,29.74
2023-04-08T03:35:19.392Z,29.77
2023-04-08T03:37:47.151Z,29.72
2023-04-08T03:40:13.745Z,29.77
2023-04-08T03:42:40.729Z,29.78
2023-04-08T03:45:07.759Z,29.80
2023-04-08T03:47:34.600Z,29.87
2023-04-08T03:50:03.349Z,29.96
2023-04-08T03:52:32.278Z,29.90
2023-04-08T03:54:58.840Z,29.96
2023-04-08T03:57:25.524Z,30.03
2023-04-08T03:59:52.153Z,30.21
2023-04-08T04:02:18.810Z,30.28
2023-04-08T04:04:45.572Z,30.31
2023-04-08T04:07:12.214Z,30.50
2023-04-08T04:09:38.814Z,30.52
2023-04-08T04:12:05.579Z,30.57
2023-04-08T04:14:32.216Z,30.67
2023-04-08T04:16:58.795Z,30.72
2023-04-08T04:19:25.426Z,30.71
2023-04-08T04:21:52.006Z,30.80
2023-04-08T04:24:18.665Z,30.84
2023-04-08T04:26:45.481Z,30.88
2023-04-08T04:29:12.204Z,30.88
2023-04-08T04:31:38.917Z,30.89
2023-04-08T04:34:05.849Z,30.87
2023-04-08T04:36:32.592Z,30.87
2023-04-08T04:38:59.225Z,30.82
2023-04-08T04:41:27.310Z,30.85
2023-04-08T04:43:54.028Z,30.83
2023-04-08T04:46:20.881Z,30.83
2023-04-08T04:48:47.799Z,30.86
2023-04-08T04:51:14.901Z,30.86
2023-04-08T04:53:41.557Z,30.81
2023-04-08T04:56:08.127Z,30.85
2023-04-08T04:58:34.717Z,31.08
2023-04-08T05:01:01.424Z,30.54
2023-04-08T05:03:28.077Z,30.34
2023-04-08T05:05:55.053Z,30.11
2023-04-08T05:08:21.835Z,29.82
2023-04-08T05:10:50.732Z,29.60
2023-04-08T05:13:18.151Z,29.42
2023-04-08T05:15:48.073Z,29.19
2023-04-08T05:18:14.952Z,29.06
2023-04-08T05:20:41.582Z,28.82
2023-04-08T05:23:08.705Z,28.48
2023-04-08T05:25:35.456Z,28.13
2023-04-08T05:28:02.264Z,27.82
2023-04-08T05:30:28.962Z,27.59
2023-04-08T05:32:57.076Z,27.40
2023-04-08T05:35:25.390Z,27.29
2023-04-08T05:37:52.035Z,27.19
2023-04-08T05:40:18.693Z,27.18
2023-04-08T05:42:45.344Z,27.17
2023-04-08T05:45:11.956Z,27.24
2023-04-08T05:47:38.632Z,27.26
2023-04-08T05:50:05.937Z,27.27
2023-04-08T05:52:32.563Z,27.37
2023-04-08T05:54:59.322Z,27.29
2023-04-08T05:57:25.889Z,27.23
2023-04-08T05:59:53.593Z,27.25
2023-04-08T06:02:20.298Z,27.25
2023-04-08T06:04:47.237Z,27.29
2023-04-08T06:07:13.945Z,27.40
2023-04-08T06:09:40.595Z,27.38
2023-04-08T06:12:07.167Z,27.49
2023-04-08T06:14:33.740Z,27.53
2023-04-08T06:17:00.491Z,27.59
2023-04-08T06:19:27.232Z,27.68
2023-04-08T06:21:58.809Z,27.76
2023-04-08T06:24:27.339Z,27.88
2023-04-08T06:26:54.254Z,27.91
2023-04-08T06:29:24.052Z,27.97
2023-04-08T06:31:51.229Z,28.05
2023-04-08T06:34:18.018Z,28.11
2023-04-08T06:36:44.693Z,28.16
2023-04-08T06:39:11.363Z,28.25
2023-04-08T06:41:38.059Z,28.31
2023-04-08T06:44:04.806Z,28.32
2023-04-08T06:46:31.464Z,28.36
2023-04-08T06:48:58.200Z,28.43
2023-04-08T06:51:24.822Z,28.51
2023-04-08T06:53:51.432Z,28.57
2023-04-08T06:56:18.002Z,28.61
2023-04-08T06:58:44.630Z,28.62
2023-04-08T07:01:11.470Z,28.69
2023-04-08T07:03:38.258Z,28.79
2023-04-08T07:06:05.249Z,28.86
2023-04-08T07:08:31.863Z,28.89
2023-04-08T07:10:58.441Z,28.98
2023-04-08T07:13:25.099Z,28.89
2023-04-08T07:15:51.998Z,28.91
2023-04-08T07:18:18.686Z,28.93
2023-04-08T07:20:45.493Z,29.00
2023-04-08T07:23:12.085Z,29.04
2023-04-08T07:25:38.692Z,29.17
2023-04-08T07:28:05.361Z,29.21
2023-04-08T07:30:32.108Z,29.16
2023-04-08T07:33:00.809Z,29.20
2023-04-08T07:35:28.107Z,29.14
2023-04-08T07:37:55.102Z,29.15
2023-04-08T07:40:21.690Z,29.12
2023-04-08T07:42:48.293Z,29.13
2023-04-08T07:45:15.452Z,29.11
2023-04-08T07:47:42.251Z,29.08
2023-04-08T07:50:09.108Z,29.07
2023-04-08T07:52:35.900Z,29.05
2023-04-08T07:55:05.837Z,29.05
2023-04-08T07:57:32.829Z,29.05
2023-04-08T07:59:59.498Z,29.05
2023-04-08T08:02:26.519Z,29.05
2023-04-08T08:04:53.389Z,29.07
2023-04-08T08:07:20.203Z,29.05
2023-04-08T08:09:46.790Z,29.12
2023-04-08T08:12:13.349Z,29.12
2023-04-08T08:14:39.959Z,29.15
2023-04-08T08:17:06.596Z,29.21
2023-04-08T08:19:33.234Z,29.28
2023-04-08T08:22:00.007Z,29.29
2023-04-08T08:24:26.696Z,29.34
2023-04-08T08:26:54.472Z,29.40
2023-04-08T08:29:21.124Z,29.42
2023-04-08T08:31:48.638Z,29.50
2023-04-08T08:34:15.557Z,29.59
2023-04-08T08:36:42.186Z,29.52
2023-04-08T08:39:08.789Z,29.56
2023-04-08T08:41:36.582Z,29.52
2023-04-08T08:44:05.477Z,29.55
2023-04-08T08:46:32.099Z,29.60
2023-04-08T08:48:58.836Z,29.63
2023-04-08T08:51:26.291Z,29.76
2023-04-08T08:53:53.206Z,29.79
2023-04-08T08:56:20.002Z,29.77
2023-04-08T08:58:47.707Z,29.81
2023-04-08T09:01:33.677Z,29.83
2023-04-08T09:04:16.013Z,29.81
2023-04-08T09:06:43.105Z,29.78
2023-04-08T09:09:12.478Z,29.78
2023-04-08T09:11:40.825Z,29.83
2023-04-08T09:14:26.144Z,29.86
2023-04-08T09:16:55.430Z,29.94
2023-04-08T09:19:22.088Z,29.92
2023-04-08T09:22:05.010Z,29.96
2023-04-08T09:24:32.083Z,29.96
2023-04-08T09:26:58.744Z,29.92
2023-04-08T09:29:28.135Z,29.91
2023-04-08T09:31:58.247Z,29.93
2023-04-08T09:34:25.591Z,29.91
2023-04-08T09:36:52.594Z,29.95
2023-04-08T09:39:19.378Z,29.93
2023-04-08T09:41:48.536Z,29.93
2023-04-08T09:44:16.665Z,29.94
2023-04-08T09:46:49.286Z,29.99
2023-04-08T09:49:25.085Z,29.97
2023-04-08T09:51:53.649Z,29.95
2023-04-08T09:54:21.742Z,29.99
2023-04-08T09:56:51.740Z,30.07
2023-04-08T09:59:21.008Z,30.08
2023-04-08T10:01:53.322Z,30.09
2023-04-08T10:04:21.174Z,30.09
2023-04-08T10:06:53.843Z,30.06
2023-04-08T10:09:23.670Z,30.08
2023-04-08T10:11:50.536Z,30.09
2023-04-08T10:14:17.548Z,30.09
2023-04-08T10:16:44.236Z,30.14
2023-04-08T10:19:42.983Z,30.14
2023-04-08T10:22:34.384Z,30.16
2023-04-08T10:25:19.277Z,30.11
2023-04-08T10:27:45.985Z,30.13
2023-04-08T10:30:27.837Z,30.16
2023-04-08T10:33:01.948Z,30.16
2023-04-08T10:35:33.027Z,30.10
2023-04-08T10:37:59.896Z,30.11
2023-04-08T10:40:26.956Z,30.09
2023-04-08T10:42:57.234Z,30.07
2023-04-08T10:45:24.118Z,30.07
2023-04-08T10:47:50.963Z,30.10
2023-04-08T10:50:18.718Z,30.07
2023-04-08T10:52:52.129Z,30.12
2023-04-08T10:55:27.453Z,30.11
2023-04-08T10:57:55.865Z,30.09
2023-04-08T11:00:34.904Z,30.05
2023-04-08T11:03:03.187Z,30.05
2023-04-08T11:05:29.961Z,30.06
2023-04-08T11:07:56.727Z,30.10
2023-04-08T11:10:23.327Z,30.10
2023-04-08T11:12:50.418Z,30.15
2023-04-08T11:15:17.317Z,30.10
2023-04-08T11:17:44.725Z,30.11
2023-04-08T11:20:11.508Z,30.08
2023-04-08T11:22:38.159Z,30.08
2023-04-08T11:25:05.151Z,30.08
2023-04-08T11:27:31.859Z,30.08
2023-04-08T11:29:59.277Z,30.11
2023-04-08T11:32:26.049Z,30.11
2023-04-08T11:34:53.408Z,30.12
2023-04-08T11:37:20.137Z,30.12
2023-04-08T11:39:46.851Z,30.13
2023-04-08T11:42:29.740Z,30.16
2023-04-08T11:44:56.529Z,30.17
2023-04-08T11:47:32.849Z,30.16
2023-04-08T11:49:59.779Z,30.15
2023-04-08T11:52:48.496Z,30.18
2023-04-08T11:55:28.911Z,30.18
2023-04-08T11:57:56.275Z,30.20
2023-04-08T12:00:23.543Z,30.18
2023-04-08T12:02:51.204Z,30.21
2023-04-08T12:05:17.901Z,30.23
2023-04-08T12:07:44.570Z,30.18
2023-04-08T12:10:11.492Z,30.19
2023-04-08T12:12:38.541Z,30.20
2023-04-08T12:15:05.673Z,30.23
2023-04-08T12:17:32.313Z,30.19
2023-04-08T12:19:58.906Z,30.23
2023-04-08T12:22:25.762Z,30.23
2023-04-08T12:24:52.407Z,30.23
2023-04-08T12:27:19.063Z,30.23
2023-04-08T12:29:46.234Z,30.21
2023-04-08T12:32:13.460Z,30.18
2023-04-08T12:34:40.536Z,30.16
2023-04-08T12:37:07.228Z,30.13
2023-04-08T12:39:33.916Z,30.16
2023-04-08T12:42:00.510Z,30.16
2023-04-08T12:44:27.245Z,30.16
2023-04-08T12:46:54.805Z,30.12
2023-04-08T12:49:21.500Z,30.15
2023-04-08T12:51:48.100Z,30.12
2023-04-08T12:54:14.745Z,30.14
2023-04-08T12:56:43.232Z,30.12
2023-04-08T12:59:10.040Z,30.16
2023-04-08T13:01:36.756Z,30.16
2023-04-08T13:04:03.683Z,30.17
2023-04-08T13:06:30.763Z,30.16
2023-04-08T13:08:57.424Z,30.11
2023-04-08T13:11:24.048Z,30.12
2023-04-08T13:13:50.712Z,30.14
2023-04-08T13:16:17.526Z,30.16
2023-04-08T13:18:44.190Z,30.12
2023-04-08T13:21:11.014Z,30.12
2023-04-08T13:23:37.687Z,30.12
2023-04-08T13:26:04.322Z,30.17
2023-04-08T13:28:31.045Z,30.20
2023-04-08T13:30:57.682Z,30.30
2023-04-08T13:33:24.260Z,30.33
2023-04-08T13:35:51.022Z,30.32
2023-04-08T13:38:17.971Z,30.32
2023-04-08T13:40:45.996Z,30.33
2023-04-08T13:43:14.589Z,30.23
2023-04-08T13:45:41.873Z,30.27
2023-04-08T13:48:08.696Z,30.27
2023-04-08T13:50:35.473Z,30.19
2023-04-08T13:53:02.302Z,30.20
2023-04-08T13:55:28.976Z,30.20
2023-04-08T13:57:56.144Z,30.23
2023-04-08T14:00:22.970Z,30.18
2023-04-08T14:02:51.088Z,30.18
2023-04-08T14:05:18.032Z,30.20
2023-04-08T14:07:44.785Z,30.21
2023-04-08T14:10:11.442Z,30.17
2023-04-08T14:12:38.048Z,30.18
2023-04-08T14:15:05.059Z,30.18
2023-04-08T14:17:32.058Z,30.23
2023-04-08T14:19:59.587Z,30.20
2023-04-08T14:22:26.169Z,30.24
2023-04-08T14:24:52.767Z,30.24
2023-04-08T14:27:19.469Z,30.20
2023-04-08T14:29:46.234Z,30.24
2023-04-08T14:32:13.261Z,30.29
2023-04-08T14:34:39.858Z,30.32
2023-04-08T14:37:06.427Z,30.37
2023-04-08T14:39:33.099Z,30.40
2023-04-08T14:41:59.689Z,30.35
2023-04-08T14:44:26.319Z,30.39
2023-04-08T14:46:52.966Z,30.38
2023-04-08T14:49:19.707Z,30.31
2023-04-08T14:51:46.452Z,30.39
2023-04-08T14:54:14.234Z,30.34
2023-04-08T14:56:40.923Z,30.29
2023-04-08T14:59:07.566Z,30.29
2023-04-08T15:01:34.317Z,30.27
2023-04-08T15:04:01.076Z,30.22
2023-04-08T15:06:28.558Z,30.20
2023-04-08T15:08:55.161Z,30.19
2023-04-08T15:11:21.970Z,30.18
2023-04-08T15:13:48.609Z,30.17
2023-04-08T15:16:15.627Z,30.17
2023-04-08T15:18:42.345Z,30.18
2023-04-08T15:21:09.050Z,30.17
2023-04-08T15:23:35.910Z,30.19
2023-04-08T15:26:02.906Z,30.20
2023-04-08T15:28:29.560Z,30.22
2023-04-08T15:30:56.204Z,30.25
2023-04-08T15:33:22.845Z,30.28
2023-04-08T15:35:49.610Z,30.19
2023-04-08T15:38:16.346Z,30.21
2023-04-08T15:40:43.981Z,30.21
2023-04-08T15:43:11.346Z,30.18
2023-04-08T15:45:42.821Z,30.18
2023-04-08T15:48:11.607Z,30.21
2023-04-08T15:50:38.735Z,30.19
2023-04-08T15:53:05.781Z,30.18
2023-04-08T15:55:37.544Z,30.19
2023-04-08T15:58:04.103Z,30.21
2023-04-08T16:00:31.487Z,30.27
2023-04-08T16:02:58.258Z,30.21
2023-04-08T16:05:24.991Z,30.28
2023-04-08T16:07:51.896Z,30.20
2023-04-08T16:10:18.642Z,30.21
2023-04-08T16:12:46.223Z,30.21
2023-04-08T16:15:13.110Z,30.23
2023-04-08T16:17:39.805Z,30.27
2023-04-08T16:20:06.960Z,30.28
2023-04-08T16:22:33.606Z,30.26
2023-04-08T16:25:00.587Z,30.25
2023-04-08T16:27:27.227Z,30.29
2023-04-08T16:29:53.885Z,30.31
2023-04-08T16:32:20.489Z,30.43
2023-04-08T16:34:47.070Z,30.31
2023-04-08T16:37:14.860Z,30.34
2023-04-08T16:39:42.284Z,30.36
2023-04-08T16:42:09.056Z,30.45
2023-04-08T16:44:35.670Z,30.43
2023-04-08T16:47:02.302Z,30.44
2023-04-08T16:49:28.985Z,30.45
2023-04-08T16:51:55.599Z,30.51
2023-04-08T16:54:22.200Z,30.57
2023-04-08T16:56:48.789Z,30.50
2023-04-08T16:59:15.457Z,30.50
2023-04-08T17:01:43.244Z,30.46
2023-04-08T17:04:09.913Z,30.47
2023-04-08T17:06:37.659Z,30.50
2023-04-08T17:09:04.372Z,30.49
2023-04-08T17:11:31.184Z,30.53
2023-04-08T17:13:57.843Z,30.52
2023-04-08T17:16:24.490Z,30.52
2023-04-08T17:18:51.410Z,30.56
2023-04-08T17:21:18.138Z,30.53
2023-04-08T17:23:47.419Z,30.51
2023-04-08T17:26:14.502Z,30.58
2023-04-08T17:28:41.127Z,30.61
2023-04-08T17:31:07.833Z,30.57
2023-04-08T17:33:34.423Z,30.61
2023-04-08T17:36:01.542Z,30.61
2023-04-08T17:38:28.249Z,30.56
2023-04-08T17:40:54.883Z,30.60
2023-04-08T17:43:21.579Z,30.60
2023-04-08T17:45:52.374Z,30.61
2023-04-08T17:48:19.054Z,30.62
2023-04-08T17:50:45.735Z,30.64
2023-04-08T17:53:12.386Z,30.64
2023-04-08T17:55:39.071Z,30.66
2023-04-08T17:58:05.811Z,30.63
2023-04-08T18:00:32.449Z,30.67
2023-04-08T18:02:59.257Z,30.64
2023-04-08T18:05:27.279Z,30.66
2023-04-08T18:07:53.909Z,30.67
2023-04-08T18:10:20.752Z,30.75
2023-04-08T18:12:48.978Z,30.76
2023-04-08T18:15:15.880Z,30.78
2023-04-08T18:17:44.574Z,30.76
2023-04-08T18:20:11.396Z,30.80
2023-04-08T18:22:38.066Z,30.75
2023-04-08T18:25:06.454Z,30.75
2023-04-08T18:27:33.634Z,30.83
2023-04-08T18:30:00.439Z,30.81
2023-04-08T18:32:27.285Z,30.81
2023-04-08T18:34:54.174Z,30.81
2023-04-08T18:37:21.664Z,30.82
2023-04-08T18:39:48.558Z,30.83
2023-04-08T18:42:15.478Z,30.83
2023-04-08T18:44:42.789Z,30.84
2023-04-08T18:47:09.752Z,30.81
2023-04-08T18:49:38.565Z,30.80
2023-04-08T18:52:06.640Z,30.83
2023-04-08T18:54:33.257Z,30.89
2023-04-08T18:56:59.900Z,30.82
2023-04-08T18:59:30.073Z,30.84
2023-04-08T19:01:57.115Z,30.82
2023-04-08T19:04:23.987Z,30.83
2023-04-08T19:06:50.736Z,30.79
2023-04-08T19:09:17.413Z,30.83
2023-04-08T19:11:44.019Z,30.81
2023-04-08T19:14:10.961Z,30.82
2023-04-08T19:16:39.339Z,30.81
2023-04-08T19:19:07.699Z,30.80
2023-04-08T19:21:37.673Z,30.81
2023-04-08T19:24:06.238Z,30.80
2023-04-08T19:26:33.672Z,30.82
2023-04-08T19:29:01.103Z,30.82
2023-04-08T19:31:27.808Z,30.83
2023-04-08T19:33:54.535Z,30.84
2023-04-08T19:36:21.294Z,30.84
2023-04-08T19:38:47.882Z,30.88
2023-04-08T19:41:14.472Z,30.84
2023-04-08T19:43:41.173Z,30.84
2023-04-08T19:46:08.708Z,30.84
2023-04-08T19:48:35.711Z,30.83
2023-04-08T19:51:03.382Z,30.88
2023-04-08T19:53:30.650Z,30.83
2023-04-08T19:56:01.638Z,30.89
2023-04-08T19:58:28.625Z,30.87
2023-04-08T20:00:55.302Z,30.88
2023-04-08T20:03:22.192Z,30.86
2023-04-08T20:05:49.240Z,30.84
2023-04-08T20:08:16.149Z,30.86
2023-04-08T20:10:42.867Z,30.85
2023-04-08T20:13:09.508Z,30.87
2023-04-08T20:15:36.352Z,30.86
2023-04-08T20:18:03.080Z,30.83
2023-04-08T20:20:30.114Z,30.85
2023-04-08T20:22:56.782Z,30.85
2023-04-08T20:25:23.418Z,30.86
2023-04-08T20:27:50.040Z,30.85
2023-04-08T20:30:16.698Z,30.85
2023-04-08T20:32:43.343Z,30.87
2023-04-08T20:35:10.069Z,30.84
2023-04-08T20:37:36.973Z,30.89
2023-04-08T20:40:04.010Z,30.90
2023-04-08T20:42:30.659Z,30.86
2023-04-08T20:44:57.440Z,30.85
2023-04-08T20:47:24.872Z,30.88
2023-04-08T20:49:51.625Z,30.83
2023-04-08T20:52:18.200Z,30.86
2023-04-08T20:54:44.832Z,30.85
2023-04-08T20:57:11.606Z,30.87
2023-04-08T20:59:38.390Z,30.84
2023-04-08T21:02:05.679Z,30.87
2023-04-08T21:04:32.382Z,30.87
2023-04-08T21:06:59.084Z,30.87
2023-04-08T21:09:25.747Z,30.85
2023-04-08T21:11:52.401Z,30.87
2023-04-08T21:14:19.239Z,30.85
2023-04-08T21:16:46.070Z,30.83
2023-04-08T21:19:12.738Z,30.85
2023-04-08T21:21:40.031Z,30.81
2023-04-08T21:24:07.128Z,30.84
2023-04-08T21:26:33.953Z,30.82
2023-04-08T21:29:00.743Z,30.82
2023-04-08T21:31:27.457Z,30.80
2023-04-08T21:33:54.412Z,30.82
2023-04-08T21:36:21.041Z,30.82
2023-04-08T21:38:47.631Z,30.81
2023-04-08T21:41:14.300Z,30.82
2023-04-08T21:43:41.394Z,30.82
2023-04-08T21:46:08.744Z,30.78
2023-04-08T21:48:35.469Z,30.83
2023-04-08T21:51:02.092Z,30.79
2023-04-08T21:53:28.665Z,30.81
2023-04-08T21:55:55.679Z,30.80
2023-04-08T21:58:22.402Z,30.81
2023-04-08T22:00:50.716Z,30.78
2023-04-08T22:03:17.490Z,30.77
2023-04-08T22:05:44.242Z,30.80
2023-04-08T22:08:10.899Z,30.81
2023-04-08T22:10:37.630Z,30.80
2023-04-08T22:13:04.277Z,30.80
2023-04-08T22:15:31.181Z,30.80
2023-04-08T22:17:58.952Z,30.81
2023-04-08T22:20:25.810Z,30.82
2023-04-08T22:22:53.041Z,30.80
2023-04-08T22:25:19.721Z,30.78
2023-04-08T22:27:46.666Z,30.77
2023-04-08T22:30:13.536Z,30.77
2023-04-08T22:32:40.245Z,30.80
2023-04-08T22:35:07.262Z,30.81
2023-04-08T22:37:33.940Z,30.78
2023-04-08T22:40:01.147Z,30.80
2023-04-08T22:42:27.802Z,30.78
2023-04-08T22:44:54.526Z,30.76
2023-04-08T22:47:21.421Z,30.77
2023-04-08T22:49:48.024Z,30.77
2023-04-08T22:52:14.677Z,30.76
2023-04-08T22:54:41.346Z,30.77
2023-04-08T22:57:07.963Z,30.81
2023-04-08T22:59:34.810Z,30.80
2023-04-08T23:02:02.082Z,30.82
2023-04-08T23:04:28.819Z,30.81
2023-04-08T23:06:55.442Z,30.76
2023-04-08T23:09:23.736Z,30.78
2023-04-08T23:11:50.701Z,30.74
2023-04-08T23:14:17.345Z,30.78
2023-04-08T23:16:43.958Z,30.77
2023-04-08T23:19:11.536Z,30.81
2023-04-08T23:21:38.298Z,30.82
2023-04-08T23:24:05.538Z,30.82
2023-04-08T23:26:32.138Z,30.83
2023-04-08T23:28:58.738Z,30.81
2023-04-08T23:31:26.843Z,30.82
2023-04-08T23:33:53.540Z,30.81
2023-04-08T23:36:20.249Z,30.83
2023-04-08T23:38:46.953Z,30.83
2023-04-08T23:41:13.570Z,30.85
2023-04-08T23:43:40.355Z,30.83
2023-04-08T23:46:06.990Z,30.84
2023-04-08T23:48:33.576Z,30.82
2023-04-08T23:51:00.509Z,30.85
2023-04-08T23:53:27.119Z,30.82
2023-04-08T23:55:53.785Z,30.82
2023-04-08T23:58:20.527Z,30.84
